Hlavní strana
METAR-TAF:

METAR-TAF

Letiště :

Båtsfjord, Norsko

zeměpisná šířka: 70-38N, zeměpisná délka: 029-44E, výška: 10 m

Aktuální stav počasí

Zpráva byla vytvořena před 2 hodinami a 26 minutami, v 16:20 UTC
Severoseverozápadní vítr 13 kt
Teplota 7°C
Vlhkost vzduchu 81%
Tlak 1012 hPa
Viditelnost 10 km a více
Skoro jasno ve výšce 1600 ft
Oblačno až skoro zataženo ve výšce 3500 ft

METAR: ENBS 251620Z 33013KT 9999 FEW016 BKN035 07/04 Q1012

Čas: 20:46 (18:46 UTC)


TAF: chybějící

Stav a předpovědi počasí z více než 4 000 letišť (zprávy METAR a TAF).

Červené a žluté tečky na mapě představují dostupné meteorologické stanice.

Když kurzor umístíte na tečku, zobrazí se název stanice.

Pak kliknutím zobrazíte stav a předpověď počasí.

Chcete-li změnit mapu, kliknutím na zelené tlačítko se znaménkem +mapu přiblížíte, kliknutím na zelené tlačítko se znaménkem – mapu oddálíte a kliknutím na zelené šipky přejdete na sousední mapy.


METAR-TAF: